Highwood, Illinois
Current Conditions -  °F | °C
As of 6:52 PM on Monday 22 Dec 2014 (Local Time) from KPWK Reporting Station
Light Rain Light Rain  
Wind Chill: 32°   Ceiling: 500
Heat Index: 39°   Visibility: 4mi
Dew Point: 37°   Wind: 10mph
Humidity: 93%   Direction: 120°ESE
Pressure: 29.68"   Gusts: NA
Location:  42.2°N, 87.81°W
Report Text: KPWK 230052Z 12009KT 4SM -RA BR OVC005 04/03 A2968 RMK AO2 SLP057 P0004 T00390028
Loading
Personal Weather Stations






























Interactive Weather Map New forecast layout! Learn more

10-Day Weather Forecast

Advertisements
Track Severe Weather on mobile